createdAt,value
2019-01-23T00:01:25.275Z,97.47
2019-01-23T00:03:52.671Z,86.33
2019-01-23T00:06:20.092Z,107.87
2019-01-23T00:08:47.485Z,102.73
2019-01-23T00:11:14.824Z,137.77
2019-01-23T00:13:42.212Z,99.00
2019-01-23T00:16:09.536Z,91.80
2019-01-23T00:18:36.920Z,107.53
2019-01-23T00:21:04.320Z,70.60
2019-01-23T00:23:31.631Z,99.93
2019-01-23T00:25:59.008Z,139.80
2019-01-23T00:28:26.415Z,109.37
2019-01-23T00:30:53.912Z,207.00
2019-01-23T00:33:21.290Z,143.23
2019-01-23T00:35:48.710Z,151.17
2019-01-23T00:38:16.104Z,181.83
2019-01-23T00:40:43.451Z,74.33
2019-01-23T00:43:10.854Z,123.93
2019-01-23T00:45:38.244Z,90.10
2019-01-23T00:48:05.553Z,138.27
2019-01-23T00:50:32.948Z,105.87
2019-01-23T00:53:00.367Z,109.10
2019-01-23T00:55:27.764Z,125.33
2019-01-23T00:57:55.178Z,115.60
2019-01-23T01:00:24.429Z,118.00
2019-01-23T01:02:53.306Z,75.70
2019-01-23T01:05:21.451Z,82.07
2019-01-23T01:07:50.713Z,101.80
2019-01-23T01:10:19.383Z,55.40
2019-01-23T01:12:48.333Z,54.93
2019-01-23T01:15:17.253Z,69.83
2019-01-23T01:17:44.725Z,36.67
2019-01-23T01:20:13.669Z,36.73
2019-01-23T01:22:41.136Z,78.77
2019-01-23T01:25:09.681Z,99.50
2019-01-23T01:27:37.000Z,87.53
2019-01-23T01:30:05.921Z,91.70
2019-01-23T01:32:33.317Z,121.07
2019-01-23T01:35:00.744Z,106.80
2019-01-23T01:37:28.162Z,108.93
2019-01-23T01:39:55.548Z,90.03
2019-01-23T01:42:22.976Z,96.77
2019-01-23T01:44:50.371Z,118.80
2019-01-23T01:47:17.770Z,115.80
2019-01-23T01:49:45.186Z,103.83
2019-01-23T01:52:12.569Z,78.47
2019-01-23T01:54:39.960Z,79.17
2019-01-23T01:57:07.386Z,80.27
2019-01-23T01:59:34.802Z,89.20
2019-01-23T02:02:02.184Z,87.20
2019-01-23T02:04:29.600Z,94.77
2019-01-23T02:06:57.065Z,96.50
2019-01-23T02:09:24.482Z,60.47
2019-01-23T02:11:51.893Z,99.63
2019-01-23T02:14:19.296Z,91.47
2019-01-23T02:16:46.698Z,80.63
2019-01-23T02:19:14.104Z,109.23
2019-01-23T02:21:41.516Z,78.07
2019-01-23T02:24:08.907Z,83.77
2019-01-23T02:26:36.297Z,90.27
2019-01-23T02:29:09.482Z,94.47
2019-01-23T02:31:34.286Z,91.77
2019-01-23T02:34:01.702Z,76.97
2019-01-23T02:36:29.082Z,53.87
2019-01-23T02:38:56.468Z,86.67
2019-01-23T02:41:23.852Z,84.47
2019-01-23T02:43:51.241Z,83.00
2019-01-23T02:46:18.644Z,89.83
2019-01-23T02:48:46.055Z,72.47
2019-01-23T02:51:13.452Z,80.47
2019-01-23T02:53:40.876Z,106.47
2019-01-23T02:56:08.253Z,89.63
2019-01-23T02:58:35.644Z,105.13
2019-01-23T03:01:02.989Z,107.10
2019-01-23T03:03:30.393Z,85.03
2019-01-23T03:05:57.797Z,65.43
2019-01-23T03:08:25.193Z,81.47
2019-01-23T03:10:52.599Z,83.60
2019-01-23T03:13:20.003Z,75.17
2019-01-23T03:15:47.384Z,85.87
2019-01-23T03:18:14.800Z,90.43
2019-01-23T03:20:42.194Z,86.13
2019-01-23T03:23:09.617Z,101.77
2019-01-23T03:25:37.001Z,91.33
2019-01-23T03:28:04.454Z,82.93
2019-01-23T03:30:31.849Z,80.33
2019-01-23T03:32:59.245Z,78.37
2019-01-23T03:35:26.648Z,68.37
2019-01-23T03:37:54.068Z,77.10
2019-01-23T03:40:22.996Z,84.33
2019-01-23T03:42:50.390Z,74.40
2019-01-23T03:45:19.671Z,67.07
2019-01-23T03:47:48.585Z,71.23
2019-01-23T03:50:16.797Z,72.03
2019-01-23T03:52:45.735Z,73.53
2019-01-23T03:55:14.683Z,80.53
2019-01-23T03:57:42.065Z,64.67
2019-01-23T04:00:10.996Z,72.70
2019-01-23T04:02:38.405Z,67.90
2019-01-23T04:05:07.312Z,68.37
2019-01-23T04:07:34.723Z,76.67
2019-01-23T04:10:02.127Z,73.33
2019-01-23T04:12:29.507Z,70.73
2019-01-23T04:14:56.869Z,86.47
2019-01-23T04:17:24.115Z,79.37
2019-01-23T04:19:51.394Z,79.57
2019-01-23T04:22:18.662Z,73.13
2019-01-23T04:24:45.926Z,74.43
2019-01-23T04:27:13.210Z,76.03
2019-01-23T04:29:40.459Z,68.43
2019-01-23T04:32:07.716Z,85.70
2019-01-23T04:34:34.983Z,93.30
2019-01-23T04:37:02.270Z,71.07
2019-01-23T04:39:29.511Z,82.37
2019-01-23T04:41:56.801Z,79.30
2019-01-23T04:44:24.083Z,90.23
2019-01-23T04:46:51.351Z,93.83
2019-01-23T04:49:18.631Z,89.73
2019-01-23T04:51:47.532Z,77.43
2019-01-23T04:54:16.088Z,96.67
2019-01-23T04:56:43.390Z,79.83
2019-01-23T04:59:10.637Z,88.43
2019-01-23T05:01:37.882Z,80.77
2019-01-23T05:04:05.227Z,69.87
2019-01-23T05:06:32.512Z,87.20
2019-01-23T05:08:59.781Z,83.77
2019-01-23T05:11:27.052Z,107.33
2019-01-23T05:13:54.355Z,81.30
2019-01-23T05:16:21.603Z,91.40
2019-01-23T05:18:48.931Z,96.33
2019-01-23T05:21:16.292Z,70.00
2019-01-23T05:23:45.213Z,65.57
2019-01-23T05:26:12.478Z,79.90
2019-01-23T05:28:39.751Z,72.00
2019-01-23T05:31:07.003Z,76.43
2019-01-23T05:33:34.283Z,84.70
2019-01-23T05:36:01.550Z,70.60
2019-01-23T05:38:28.814Z,66.23
2019-01-23T05:40:56.103Z,81.80
2019-01-23T05:43:23.382Z,68.60
2019-01-23T05:45:50.642Z,67.30
2019-01-23T05:48:17.916Z,67.67
2019-01-23T05:50:45.191Z,62.87
2019-01-23T05:53:12.460Z,71.67
2019-01-23T05:55:39.729Z,78.83
2019-01-23T05:58:07.007Z,71.80
2019-01-23T06:00:34.296Z,59.37
2019-01-23T06:03:01.579Z,61.10
2019-01-23T06:05:28.908Z,63.63
2019-01-23T06:07:56.187Z,57.63
2019-01-23T06:10:23.453Z,69.63
2019-01-23T06:12:50.742Z,46.87
2019-01-23T06:15:18.085Z,59.80
2019-01-23T06:17:45.370Z,60.93
2019-01-23T06:20:16.835Z,57.40
2019-01-23T06:22:44.087Z,56.70
2019-01-23T06:25:11.460Z,47.60
2019-01-23T06:27:38.739Z,43.60
2019-01-23T06:30:10.498Z,42.63
2019-01-23T06:32:36.563Z,48.47
2019-01-23T06:35:05.405Z,50.43
2019-01-23T06:37:32.719Z,42.53
2019-01-23T06:39:59.983Z,42.17
2019-01-23T06:42:27.276Z,46.00
2019-01-23T06:44:54.519Z,43.50
2019-01-23T06:47:21.806Z,43.50
2019-01-23T06:49:49.074Z,36.97
2019-01-23T06:52:16.337Z,40.87
2019-01-23T06:54:43.619Z,40.00
2019-01-23T06:57:10.883Z,36.43
2019-01-23T06:59:38.135Z,52.63
2019-01-23T07:02:05.475Z,38.67
2019-01-23T07:04:32.756Z,38.70
2019-01-23T07:07:00.019Z,41.00
2019-01-23T07:09:27.345Z,40.10
2019-01-23T07:11:54.632Z,40.53
2019-01-23T07:14:21.884Z,41.13
2019-01-23T07:16:49.135Z,44.13
2019-01-23T07:19:16.445Z,45.83
2019-01-23T07:21:43.691Z,44.33
2019-01-23T07:24:10.971Z,43.70
2019-01-23T07:26:38.259Z,41.43
2019-01-23T07:29:05.533Z,42.70
2019-01-23T07:31:32.808Z,42.60
2019-01-23T07:34:00.046Z,46.80
2019-01-23T07:36:27.411Z,44.27
2019-01-23T07:38:54.690Z,48.00
2019-01-23T07:41:21.955Z,45.47
2019-01-23T07:43:49.226Z,45.43
2019-01-23T07:46:16.487Z,52.43
2019-01-23T07:48:43.774Z,50.17
2019-01-23T07:51:13.161Z,50.87
2019-01-23T07:53:40.529Z,44.97
2019-01-23T07:56:07.907Z,52.30
2019-01-23T07:58:35.246Z,50.00
2019-01-23T08:01:02.541Z,48.23
2019-01-23T08:03:29.806Z,47.03
2019-01-23T08:05:57.068Z,46.67
2019-01-23T08:08:24.344Z,56.80
2019-01-23T08:10:51.611Z,49.80
2019-01-23T08:13:19.043Z,44.43
2019-01-23T08:15:46.446Z,45.77
2019-01-23T08:18:13.700Z,45.57
2019-01-23T08:20:40.989Z,45.87
2019-01-23T08:23:08.303Z,41.50
2019-01-23T08:25:35.615Z,43.03
2019-01-23T08:28:02.891Z,41.67
2019-01-23T08:30:30.231Z,38.87
2019-01-23T08:32:57.560Z,47.33
2019-01-23T08:35:26.354Z,42.93
2019-01-23T08:37:55.166Z,41.57
2019-01-23T08:40:22.539Z,43.30
2019-01-23T08:42:50.038Z,47.73
2019-01-23T08:45:18.538Z,41.23
2019-01-23T08:47:47.370Z,48.07
2019-01-23T08:50:16.421Z,44.77
2019-01-23T08:52:43.699Z,46.47
2019-01-23T08:55:10.999Z,40.40
2019-01-23T08:57:38.260Z,42.07
2019-01-23T09:00:09.766Z,40.83
2019-01-23T09:02:37.032Z,43.60
2019-01-23T09:05:05.831Z,42.50
2019-01-23T09:07:33.096Z,40.80
2019-01-23T09:10:00.387Z,40.30
2019-01-23T09:12:27.665Z,41.80
2019-01-23T09:14:54.934Z,40.77
2019-01-23T09:17:22.178Z,41.73
2019-01-23T09:19:49.484Z,36.80
2019-01-23T09:22:16.730Z,41.07
2019-01-23T09:24:43.996Z,41.83
2019-01-23T09:27:11.307Z,36.70
2019-01-23T09:29:38.588Z,39.00
2019-01-23T09:32:07.483Z,35.20
2019-01-23T09:34:39.327Z,38.07
2019-01-23T09:37:08.128Z,42.87
2019-01-23T09:39:36.942Z,42.53
2019-01-23T09:42:20.691Z,39.37
2019-01-23T09:45:06.041Z,36.23
2019-01-23T09:47:34.843Z,35.07
2019-01-23T09:50:21.694Z,34.80
2019-01-23T09:52:53.262Z,35.07
2019-01-23T09:55:20.511Z,34.70
2019-01-23T09:57:49.361Z,33.80
2019-01-23T10:00:19.793Z,33.40
2019-01-23T10:02:47.082Z,32.47
2019-01-23T10:05:16.774Z,33.23
2019-01-23T10:07:43.825Z,32.47
2019-01-23T10:10:15.568Z,31.80
2019-01-23T10:12:42.859Z,35.30
2019-01-23T10:15:11.652Z,33.93
2019-01-23T10:17:39.373Z,31.23
2019-01-23T10:20:06.795Z,29.27
2019-01-23T10:22:34.046Z,31.17
2019-01-23T10:25:01.370Z,31.23
2019-01-23T10:27:28.635Z,35.93
2019-01-23T10:29:55.902Z,33.80
2019-01-23T10:32:23.174Z,37.97
2019-01-23T10:34:50.438Z,37.80
2019-01-23T10:37:19.582Z,34.70
2019-01-23T10:39:46.703Z,30.93
2019-01-23T10:42:13.978Z,33.67
2019-01-23T10:44:41.261Z,31.70
2019-01-23T10:47:08.510Z,36.70
2019-01-23T10:49:35.783Z,33.07
2019-01-23T10:52:03.034Z,33.40
2019-01-23T10:54:30.314Z,34.90
2019-01-23T10:56:57.604Z,36.67
2019-01-23T10:59:24.883Z,36.90
2019-01-23T11:01:52.221Z,38.37
2019-01-23T11:04:19.496Z,41.63
2019-01-23T11:06:52.317Z,41.27
2019-01-23T11:09:21.289Z,33.50
2019-01-23T11:11:50.243Z,38.17
2019-01-23T11:14:17.525Z,34.57
2019-01-23T11:16:44.815Z,36.53
2019-01-23T11:19:13.614Z,33.03
2019-01-23T11:21:40.902Z,37.87
2019-01-23T11:24:08.189Z,35.63
2019-01-23T11:26:35.524Z,30.23
2019-01-23T11:29:02.847Z,38.53
2019-01-23T11:31:30.158Z,36.40
2019-01-23T11:33:57.443Z,36.20
2019-01-23T11:36:24.686Z,38.17
2019-01-23T11:38:52.626Z,38.50
2019-01-23T11:41:20.510Z,37.53
2019-01-23T11:43:47.783Z,34.80
2019-01-23T11:46:15.070Z,41.17
2019-01-23T11:48:42.335Z,45.47
2019-01-23T11:51:09.639Z,39.37
2019-01-23T11:53:36.907Z,38.83
2019-01-23T11:56:04.337Z,41.57
2019-01-23T11:58:31.592Z,40.90
2019-01-23T12:00:58.971Z,43.90
2019-01-23T12:03:26.220Z,41.63
2019-01-23T12:05:53.501Z,39.90
2019-01-23T12:08:20.846Z,42.53
2019-01-23T12:10:48.118Z,45.13
2019-01-23T12:13:15.450Z,41.10
2019-01-23T12:15:42.746Z,46.67
2019-01-23T12:18:10.022Z,38.40
2019-01-23T12:20:37.295Z,38.97
2019-01-23T12:23:06.123Z,41.83
2019-01-23T12:25:33.391Z,38.30
2019-01-23T12:28:00.698Z,37.63
2019-01-23T12:30:32.166Z,43.23
2019-01-23T12:32:59.450Z,41.53
2019-01-23T12:35:26.847Z,38.37
2019-01-23T12:37:54.118Z,38.73
2019-01-23T12:40:21.458Z,39.47
2019-01-23T12:42:48.765Z,42.50
2019-01-23T12:45:17.570Z,44.37
2019-01-23T12:47:44.819Z,48.97
2019-01-23T12:50:13.637Z,45.33
2019-01-23T12:52:40.939Z,47.37
2019-01-23T12:55:11.950Z,44.57
2019-01-23T12:57:39.249Z,39.77
2019-01-23T13:00:08.063Z,47.30
2019-01-23T13:02:35.347Z,41.00
2019-01-23T13:05:02.685Z,40.83
2019-01-23T13:07:33.507Z,41.60
2019-01-23T13:09:58.970Z,42.13
2019-01-23T13:12:26.299Z,41.00
2019-01-23T13:14:53.567Z,39.57
2019-01-23T13:17:20.868Z,42.57
2019-01-23T13:19:48.137Z,40.67
2019-01-23T13:22:15.454Z,39.40
2019-01-23T13:24:42.714Z,43.67
2019-01-23T13:27:10.026Z,39.70
2019-01-23T13:29:37.313Z,44.37
2019-01-23T13:32:04.575Z,42.30
2019-01-23T13:34:31.895Z,43.30
2019-01-23T13:36:59.212Z,98.97
2019-01-23T13:39:26.471Z,42.20
2019-01-23T13:41:53.757Z,48.80
2019-01-23T13:44:21.033Z,53.07
2019-01-23T13:46:48.315Z,45.97
2019-01-23T13:49:15.558Z,49.70
2019-01-23T13:51:43.702Z,48.53
2019-01-23T13:54:10.963Z,47.07
2019-01-23T13:56:38.231Z,44.43
2019-01-23T13:59:05.494Z,48.73
2019-01-23T14:01:32.791Z,48.60
2019-01-23T14:04:00.044Z,45.73
2019-01-23T14:06:27.315Z,44.97
2019-01-23T14:08:54.619Z,47.40
2019-01-23T14:11:21.880Z,47.50
2019-01-23T14:13:49.169Z,49.53
2019-01-23T14:16:16.518Z,47.07
2019-01-23T14:18:43.781Z,45.80
2019-01-23T14:21:11.040Z,47.03
2019-01-23T14:23:38.366Z,52.07
2019-01-23T14:26:05.718Z,46.60
2019-01-23T14:28:32.995Z,48.87
2019-01-23T14:31:00.235Z,49.00
2019-01-23T14:33:27.912Z,46.63
2019-01-23T14:35:55.155Z,51.83
2019-01-23T14:38:22.529Z,46.97
2019-01-23T14:40:49.795Z,44.20
2019-01-23T14:43:17.076Z,47.27
2019-01-23T14:45:44.443Z,53.97
2019-01-23T14:48:11.707Z,49.37
2019-01-23T14:50:38.987Z,49.40
2019-01-23T14:53:06.238Z,50.43
2019-01-23T14:55:33.567Z,54.63
2019-01-23T14:58:00.902Z,48.17
2019-01-23T15:00:29.838Z,48.70
2019-01-23T15:02:57.114Z,46.97
2019-01-23T15:05:25.922Z,49.60
2019-01-23T15:07:53.272Z,50.40
2019-01-23T15:10:22.105Z,52.33
2019-01-23T15:12:49.375Z,57.13
2019-01-23T15:15:18.199Z,50.47
2019-01-23T15:17:45.472Z,52.70
2019-01-23T15:20:14.273Z,48.17
2019-01-23T15:22:41.554Z,48.37
2019-01-23T15:25:09.227Z,56.67
2019-01-23T15:27:36.500Z,57.17
2019-01-23T15:30:05.121Z,53.13
2019-01-23T15:32:32.417Z,57.10
2019-01-23T15:34:59.690Z,56.60
2019-01-23T15:37:26.991Z,56.87
2019-01-23T15:39:54.241Z,50.17
2019-01-23T15:42:21.535Z,50.87
2019-01-23T15:44:49.012Z,49.13
2019-01-23T15:47:16.275Z,47.17
2019-01-23T15:49:43.522Z,49.13
2019-01-23T15:52:10.809Z,52.27
2019-01-23T15:54:38.070Z,48.63
2019-01-23T15:57:05.404Z,46.40
2019-01-23T15:59:32.685Z,48.87
2019-01-23T16:01:59.974Z,42.73
2019-01-23T16:04:27.223Z,46.00
2019-01-23T16:06:54.491Z,52.73
2019-01-23T16:09:21.775Z,43.67
2019-01-23T16:11:49.042Z,43.73
2019-01-23T16:14:16.322Z,45.13
2019-01-23T16:16:43.599Z,39.80
2019-01-23T16:19:10.902Z,36.90
2019-01-23T16:21:38.158Z,31.37
2019-01-23T16:24:06.958Z,30.73
2019-01-23T16:26:34.255Z,25.63
2019-01-23T16:29:01.512Z,28.30
2019-01-23T16:31:28.763Z,31.80
2019-01-23T16:33:56.115Z,34.57
2019-01-23T16:36:25.042Z,29.93
2019-01-23T16:38:52.322Z,30.73
2019-01-23T16:41:19.605Z,24.90
2019-01-23T16:43:46.901Z,26.70
2019-01-23T16:46:14.182Z,28.23
2019-01-23T16:48:41.463Z,26.03
2019-01-23T16:51:08.738Z,22.27
2019-01-23T16:53:53.217Z,22.63
2019-01-23T16:56:23.246Z,28.23
2019-01-23T16:58:58.154Z,31.77
2019-01-23T17:01:25.416Z,29.00
2019-01-23T17:03:52.697Z,27.63
2019-01-23T17:06:21.517Z,31.43
2019-01-23T17:08:48.767Z,31.17
2019-01-23T17:11:16.053Z,31.73
2019-01-23T17:13:43.311Z,27.87
2019-01-23T17:16:10.567Z,28.40
2019-01-23T17:18:37.848Z,30.17
2019-01-23T17:21:06.670Z,36.57
2019-01-23T17:23:33.995Z,35.17
2019-01-23T17:26:01.828Z,35.43
2019-01-23T17:28:29.086Z,35.63
2019-01-23T17:30:56.408Z,37.80
2019-01-23T17:33:23.739Z,35.40
2019-01-23T17:35:51.014Z,40.47
2019-01-23T17:38:18.379Z,38.07
2019-01-23T17:40:45.653Z,43.57
2019-01-23T17:43:13.954Z,40.40
2019-01-23T17:45:41.242Z,38.27
2019-01-23T17:48:10.058Z,38.93
2019-01-23T17:50:37.344Z,41.27
2019-01-23T17:53:06.149Z,36.80
2019-01-23T17:55:37.871Z,39.17
2019-01-23T17:58:07.120Z,42.97
2019-01-23T18:00:37.389Z,35.43
2019-01-23T18:03:07.928Z,29.20
2019-01-23T18:05:35.191Z,25.87
2019-01-23T18:08:02.528Z,32.20
2019-01-23T18:10:29.802Z,37.93
2019-01-23T18:12:57.066Z,34.97
2019-01-23T18:15:25.896Z,34.73
2019-01-23T18:17:53.255Z,26.13
2019-01-23T18:20:21.783Z,28.80
2019-01-23T18:22:49.059Z,28.07
2019-01-23T18:25:17.893Z,33.27
2019-01-23T18:27:46.774Z,25.60
2019-01-23T18:30:15.580Z,29.03
2019-01-23T18:32:42.842Z,39.70
2019-01-23T18:35:11.619Z,42.40
2019-01-23T18:37:40.465Z,52.63
2019-01-23T18:40:27.570Z,51.27
2019-01-23T18:43:02.114Z,57.13
2019-01-23T18:45:30.927Z,49.37
2019-01-23T18:48:16.202Z,47.67
2019-01-23T18:51:03.350Z,40.47
2019-01-23T18:53:30.611Z,42.50
2019-01-23T18:55:57.889Z,44.67
2019-01-23T18:58:25.174Z,45.47
2019-01-23T19:00:52.449Z,47.97
2019-01-23T19:03:19.733Z,52.20
2019-01-23T19:05:48.548Z,43.13
2019-01-23T19:08:15.899Z,43.33
2019-01-23T19:10:43.176Z,48.93
2019-01-23T19:13:10.526Z,50.33
2019-01-23T19:15:37.786Z,45.10
2019-01-23T19:18:05.137Z,55.47
2019-01-23T19:20:32.428Z,46.20
2019-01-23T19:22:59.755Z,47.13
2019-01-23T19:25:27.040Z,45.53
2019-01-23T19:27:54.396Z,32.13
2019-01-23T19:30:23.183Z,35.67
2019-01-23T19:32:50.479Z,28.77
2019-01-23T19:35:17.800Z,31.67
2019-01-23T19:37:45.063Z,29.47
2019-01-23T19:40:13.882Z,33.50
2019-01-23T19:42:41.219Z,38.00
2019-01-23T19:45:10.015Z,38.37
2019-01-23T19:47:37.368Z,39.03
2019-01-23T19:50:07.837Z,44.13
2019-01-23T19:52:35.102Z,51.10
2019-01-23T19:55:02.399Z,47.57
2019-01-23T19:57:29.667Z,42.43
2019-01-23T19:59:56.931Z,44.57
2019-01-23T20:02:24.182Z,42.97
2019-01-23T20:04:51.478Z,42.57
2019-01-23T20:07:18.750Z,45.07
2019-01-23T20:09:46.013Z,43.87
2019-01-23T20:12:15.683Z,47.43
2019-01-23T20:14:42.286Z,54.40
2019-01-23T20:17:09.557Z,44.30
2019-01-23T20:19:36.830Z,46.57
2019-01-23T20:22:05.650Z,47.03
2019-01-23T20:24:32.914Z,49.57
2019-01-23T20:27:00.200Z,41.27
2019-01-23T20:29:27.462Z,49.10
2019-01-23T20:31:55.069Z,46.70
2019-01-23T20:34:22.861Z,50.07
2019-01-23T20:36:50.156Z,57.23
2019-01-23T20:39:17.427Z,48.83
2019-01-23T20:41:44.678Z,49.90
2019-01-23T20:44:11.964Z,54.13
2019-01-23T20:46:40.241Z,54.27
2019-01-23T20:49:07.538Z,48.47
2019-01-23T20:51:34.807Z,56.60
2019-01-23T20:54:02.139Z,62.97
2019-01-23T20:56:29.411Z,51.37
2019-01-23T20:58:56.675Z,61.17
2019-01-23T21:01:23.938Z,63.13
2019-01-23T21:03:51.238Z,52.23
2019-01-23T21:06:18.526Z,50.60
2019-01-23T21:08:45.790Z,58.00
2019-01-23T21:11:13.062Z,65.47
2019-01-23T21:13:40.337Z,49.20
2019-01-23T21:16:07.663Z,64.00
2019-01-23T21:18:34.916Z,54.33
2019-01-23T21:21:02.219Z,50.90
2019-01-23T21:23:29.478Z,60.33
2019-01-23T21:25:56.731Z,51.93
2019-01-23T21:28:24.024Z,63.00
2019-01-23T21:30:51.299Z,66.13
2019-01-23T21:33:18.583Z,62.87
2019-01-23T21:35:45.854Z,60.37
2019-01-23T21:38:13.132Z,60.17
2019-01-23T21:40:43.083Z,57.20
2019-01-23T21:43:10.373Z,58.20
2019-01-23T21:45:37.717Z,53.57
2019-01-23T21:48:07.716Z,60.40
2019-01-23T21:50:34.967Z,54.00
2019-01-23T21:53:02.230Z,61.27
2019-01-23T21:55:29.507Z,68.10
2019-01-23T21:57:56.802Z,62.40
2019-01-23T22:00:28.429Z,61.43
2019-01-23T22:02:57.219Z,64.27
2019-01-23T22:05:24.477Z,61.73
2019-01-23T22:07:51.766Z,60.07
2019-01-23T22:10:19.059Z,53.63
2019-01-23T22:12:46.306Z,51.73
2019-01-23T22:15:20.923Z,58.57
2019-01-23T22:17:48.202Z,57.33
2019-01-23T22:20:17.003Z,50.40
2019-01-23T22:22:45.790Z,59.50
2019-01-23T22:25:14.596Z,59.73
2019-01-23T22:27:41.839Z,58.50
2019-01-23T22:30:13.355Z,69.50
2019-01-23T22:32:40.603Z,60.30
2019-01-23T22:35:09.427Z,51.27
2019-01-23T22:37:36.679Z,61.07
2019-01-23T22:40:05.487Z,61.73
2019-01-23T22:42:32.736Z,63.17
2019-01-23T22:45:00.551Z,63.30
2019-01-23T22:47:27.815Z,68.67
2019-01-23T22:49:55.081Z,58.97
2019-01-23T22:52:22.338Z,57.63
2019-01-23T22:54:49.620Z,60.97
2019-01-23T22:57:16.890Z,58.40
2019-01-23T22:59:44.192Z,61.93
2019-01-23T23:02:11.621Z,59.10
2019-01-23T23:04:38.901Z,60.07
2019-01-23T23:07:06.154Z,63.53
2019-01-23T23:09:33.415Z,63.10
2019-01-23T23:12:00.696Z,56.03
2019-01-23T23:14:27.974Z,66.43
2019-01-23T23:16:55.256Z,56.70
2019-01-23T23:19:22.542Z,64.07
2019-01-23T23:21:49.830Z,69.23
2019-01-23T23:24:17.108Z,63.27
2019-01-23T23:26:44.402Z,65.60
2019-01-23T23:29:11.743Z,70.00
2019-01-23T23:31:39.034Z,67.33
2019-01-23T23:34:10.064Z,71.90
2019-01-23T23:36:35.258Z,64.13
2019-01-23T23:39:04.166Z,58.70
2019-01-23T23:41:31.460Z,65.07
2019-01-23T23:43:58.722Z,59.20
2019-01-23T23:46:26.007Z,64.10
2019-01-23T23:48:53.312Z,62.20
2019-01-23T23:51:20.550Z,56.67
2019-01-23T23:53:47.811Z,56.07
2019-01-23T23:56:15.079Z,59.50
2019-01-23T23:58:42.355Z,50.60
